Time;durP1;ratioP1;P1;durP2;ratioP2;P2;SDS_P1;SDS_P2;PMS_P1;PMS_P2;Temp;Humidity;BMP_temperature;BMP_pressure;BME280_temperature;BME280_humidity;BME280_pressure;Samples;Min_cycle;Max_cycle;Signal;HPM_P1;HPM_P2
2023/01/08 00:00:43;;;;;;;7.57;3.65;;;;;;;;;;5038661;28;20017;-79
2023/01/08 00:03:10;;;;;;;6.38;3.40;;;;;;;;;;5039080;28;20387;-79
2023/01/08 00:05:36;;;;;;;6.97;3.40;;;;;;;;;;5044277;28;20029;-78
2023/01/08 00:08:02;;;;;;;11.52;3.25;;;;;;;;;;5049380;28;20052;-79
2023/01/08 00:10:28;;;;;;;6.97;3.45;;;;;;;;;;5040578;28;20076;-79
2023/01/08 00:12:55;;;;;;;6.15;3.38;;;;;;;;;;5037251;28;20025;-78
2023/01/08 00:15:21;;;;;;;11.20;3.72;;;;;;;;;;5035915;28;20041;-78
2023/01/08 00:17:46;;;;;;;24.83;3.55;;;;;;;;;;5035033;28;20029;-78
2023/01/08 00:20:13;;;;;;;8.30;3.28;;;;;;;;;;5035023;28;20029;-76
2023/01/08 00:22:38;;;;;;;9.75;3.75;;;;;;;;;;5034674;28;20033;-78
2023/01/08 00:25:05;;;;;;;8.95;3.70;;;;;;;;;;5035432;28;20052;-78
2023/01/08 00:27:31;;;;;;;6.10;3.17;;;;;;;;;;5035433;28;20035;-78
2023/01/08 00:29:57;;;;;;;7.68;3.13;;;;;;;;;;5036338;28;20022;-76
2023/01/08 00:32:22;;;;;;;7.38;3.20;;;;;;;;;;5037520;28;20386;-79
2023/01/08 00:34:49;;;;;;;9.88;3.15;;;;;;;;;;5036904;28;20036;-78
2023/01/08 00:37:17;;;;;;;10.02;3.53;;;;;;;;;;5036915;28;20028;-77
2023/01/08 00:39:43;;;;;;;5.70;3.13;;;;;;;;;;5035062;28;20049;-77
2023/01/08 00:42:09;;;;;;;7.57;3.55;;;;;;;;;;5016965;28;20104;-78
2023/01/08 00:44:35;;;;;;;6.25;3.38;;;;;;;;;;5017536;28;20026;-77
2023/01/08 00:47:01;;;;;;;7.72;3.47;;;;;;;;;;5035457;28;20104;-77
2023/01/08 00:49:27;;;;;;;10.00;3.40;;;;;;;;;;5021228;28;20026;-77
2023/01/08 00:51:53;;;;;;;9.05;3.40;;;;;;;;;;5046551;28;20124;-77
2023/01/08 00:54:19;;;;;;;7.85;3.47;;;;;;;;;;5053813;28;20025;-82
2023/01/08 00:56:45;;;;;;;5.45;3.13;;;;;;;;;;5058192;28;20060;-82
2023/01/08 00:59:11;;;;;;;4.88;3.05;;;;;;;;;;5058604;28;20021;-81
2023/01/08 01:01:37;;;;;;;9.75;3.53;;;;;;;;;;5055089;28;20030;-79
2023/01/08 01:04:03;;;;;;;4.88;3.35;;;;;;;;;;5034761;28;20068;-78
2023/01/08 01:06:29;;;;;;;5.53;3.63;;;;;;;;;;5034329;28;20037;-79
2023/01/08 01:08:56;;;;;;;8.10;3.13;;;;;;;;;;5036807;28;20051;-77
2023/01/08 01:11:23;;;;;;;5.75;3.40;;;;;;;;;;5035087;28;20017;-78
2023/01/08 01:13:50;;;;;;;9.77;3.38;;;;;;;;;;5036307;28;20025;-78
2023/01/08 01:16:16;;;;;;;5.63;3.63;;;;;;;;;;5037691;28;20100;-76
2023/01/08 01:18:42;;;;;;;6.05;3.67;;;;;;;;;;5036376;28;20064;-78
2023/01/08 01:21:37;;;;;;;6.35;3.10;;;;;;;;;;5035216;28;20025;-78
2023/01/08 01:24:04;;;;;;;9.18;3.97;;;;;;;;;;5034241;23;20033;-72
2023/01/08 01:26:30;;;;;;;8.63;3.13;;;;;;;;;;5069926;28;20416;-73
2023/01/08 01:28:57;;;;;;;7.80;3.60;;;;;;;;;;5072178;28;20029;-73
2023/01/08 01:31:23;;;;;;;5.20;3.15;;;;;;;;;;5072237;28;20020;-74
2023/01/08 01:33:50;;;;;;;4.65;3.22;;;;;;;;;;5071673;28;20025;-73
2023/01/08 01:36:17;;;;;;;5.88;3.42;;;;;;;;;;5071068;28;20025;-72
2023/01/08 01:38:43;;;;;;;6.32;3.45;;;;;;;;;;5071866;28;20496;-72
2023/01/08 01:41:17;;;;;;;5.78;3.28;;;;;;;;;;5072064;28;20130;-73
2023/01/08 01:43:43;;;;;;;7.13;3.50;;;;;;;;;;5072042;28;20028;-73
2023/01/08 01:46:17;;;;;;;7.32;3.47;;;;;;;;;;5071054;28;20029;-73
2023/01/08 01:48:43;;;;;;;6.10;3.17;;;;;;;;;;5072185;28;20384;-73
2023/01/08 01:51:09;;;;;;;7.38;3.38;;;;;;;;;;5072477;28;20290;-73
2023/01/08 01:53:36;;;;;;;6.60;3.42;;;;;;;;;;5070088;28;20025;-73
2023/01/08 01:56:03;;;;;;;5.97;3.40;;;;;;;;;;5074632;28;20032;-72
2023/01/08 01:58:31;;;;;;;6.38;3.83;;;;;;;;;;5075631;28;20033;-74
2023/01/08 02:00:58;;;;;;;6.60;3.50;;;;;;;;;;5079337;28;20542;-73
2023/01/08 02:03:27;;;;;;;7.03;3.55;;;;;;;;;;5067978;28;20028;-73
2023/01/08 02:05:55;;;;;;;6.43;3.17;;;;;;;;;;5053971;28;20021;-73
2023/01/08 02:08:48;;;;;;;4.78;3.30;;;;;;;;;;5036617;28;20067;-73
2023/01/08 02:11:23;;;;;;;7.90;3.80;;;;;;;;;;5051651;28;20111;-74
2023/01/08 02:13:58;;;;;;;4.95;3.40;;;;;;;;;;5056245;28;20017;-73
2023/01/08 02:16:44;;;;;;;5.68;3.30;;;;;;;;;;5074349;28;20028;-74
2023/01/08 02:19:16;;;;;;;5.40;3.25;;;;;;;;;;5074289;28;20119;-73
2023/01/08 02:22:02;;;;;;;5.70;3.50;;;;;;;;;;5074624;28;20056;-72
2023/01/08 02:24:53;;;;;;;10.60;3.65;;;;;;;;;;5075090;28;20025;-75
2023/01/08 02:27:20;;;;;;;8.48;3.55;;;;;;;;;;5073490;28;20023;-74
2023/01/08 02:29:47;;;;;;;4.82;3.35;;;;;;;;;;5074191;28;20026;-74
2023/01/08 02:32:13;;;;;;;6.25;3.20;;;;;;;;;;5074875;28;20026;-73
2023/01/08 02:34:39;;;;;;;4.82;3.28;;;;;;;;;;5073820;28;20032;-74
2023/01/08 02:37:05;;;;;;;5.25;3.38;;;;;;;;;;5073289;28;20028;-74
2023/01/08 02:39:37;;;;;;;5.35;3.63;;;;;;;;;;5076985;28;20154;-74
2023/01/08 02:42:10;;;;;;;10.10;3.47;;;;;;;;;;5076318;28;20405;-73
2023/01/08 02:44:39;;;;;;;7.07;3.42;;;;;;;;;;5078298;28;20123;-73
2023/01/08 02:47:07;;;;;;;4.45;3.08;;;;;;;;;;5082158;28;20032;-72
2023/01/08 02:49:36;;;;;;;10.15;3.17;;;;;;;;;;5078398;28;20495;-73
2023/01/08 02:52:03;;;;;;;6.63;3.50;;;;;;;;;;5084735;28;20074;-73
2023/01/08 02:54:31;;;;;;;6.72;3.03;;;;;;;;;;5081556;28;20031;-73
2023/01/08 02:57:00;;;;;;;5.90;3.38;;;;;;;;;;5055090;28;20436;-73
2023/01/08 02:59:27;;;;;;;6.88;3.60;;;;;;;;;;5073640;28;20112;-73
2023/01/08 03:01:53;;;;;;;5.75;3.38;;;;;;;;;;5074891;28;20036;-74
2023/01/08 03:04:21;;;;;;;6.18;3.13;;;;;;;;;;5075066;28;20024;-74
2023/01/08 03:06:47;;;;;;;7.22;3.08;;;;;;;;;;5073484;28;20033;-73
2023/01/08 03:09:14;;;;;;;4.60;3.33;;;;;;;;;;5072444;28;20031;-73
2023/01/08 03:11:51;;;;;;;6.45;3.55;;;;;;;;;;5073039;28;20024;-72
2023/01/08 03:14:46;;;;;;;5.38;3.28;;;;;;;;;;5054147;28;20060;-76
2023/01/08 03:17:17;;;;;;;6.13;3.40;;;;;;;;;;5055609;28;20032;-73
2023/01/08 03:19:48;;;;;;;5.95;3.40;;;;;;;;;;5073100;28;20031;-73
2023/01/08 03:22:15;;;;;;;11.73;3.60;;;;;;;;;;5054322;28;20032;-75
2023/01/08 03:24:42;;;;;;;9.30;3.40;;;;;;;;;;5072831;28;20043;-74
2023/01/08 03:27:10;;;;;;;9.82;3.45;;;;;;;;;;5072564;28;20028;-74
2023/01/08 03:29:37;;;;;;;9.07;3.90;;;;;;;;;;5078017;28;20023;-74
2023/01/08 03:32:05;;;;;;;5.05;3.47;;;;;;;;;;5072521;28;20146;-74
2023/01/08 03:34:32;;;;;;;11.65;3.50;;;;;;;;;;5072219;28;20055;-74
2023/01/08 03:37:01;;;;;;;5.15;3.30;;;;;;;;;;5072251;28;20032;-74
2023/01/08 03:39:32;;;;;;;6.95;3.10;;;;;;;;;;5072626;28;20020;-74
2023/01/08 03:41:59;;;;;;;7.43;3.30;;;;;;;;;;5072540;28;20029;-74
2023/01/08 03:44:26;;;;;;;5.43;3.10;;;;;;;;;;5074276;28;20028;-74
2023/01/08 03:46:53;;;;;;;7.63;3.17;;;;;;;;;;5073058;28;20032;-74
2023/01/08 03:49:21;;;;;;;6.47;3.45;;;;;;;;;;5073596;28;20472;-74
2023/01/08 03:51:47;;;;;;;5.95;3.22;;;;;;;;;;5073472;28;20032;-73
2023/01/08 03:54:15;;;;;;;13.15;3.40;;;;;;;;;;5073865;28;20024;-73
2023/01/08 03:56:41;;;;;;;7.82;3.35;;;;;;;;;;5072801;28;20108;-73
2023/01/08 03:59:07;;;;;;;4.78;3.17;;;;;;;;;;5073211;28;20024;-73
2023/01/08 04:01:34;;;;;;;5.50;3.38;;;;;;;;;;5073123;28;20033;-73
2023/01/08 04:03:59;;;;;;;8.15;3.95;;;;;;;;;;5073076;28;20512;-73
2023/01/08 04:06:25;;;;;;;5.43;3.15;;;;;;;;;;5072119;28;20028;-73
2023/01/08 04:08:51;;;;;;;5.85;3.25;;;;;;;;;;5073030;28;20354;-73
2023/01/08 04:11:17;;;;;;;6.18;3.15;;;;;;;;;;5073028;28;20029;-73
2023/01/08 04:13:43;;;;;;;8.05;3.63;;;;;;;;;;5072885;28;20024;-73
2023/01/08 04:16:09;;;;;;;10.80;3.83;;;;;;;;;;5072609;28;20020;-73
2023/01/08 04:18:35;;;;;;;6.03;3.42;;;;;;;;;;5072061;28;20477;-72
2023/01/08 04:21:01;;;;;;;5.75;3.42;;;;;;;;;;5072967;28;20017;-72
2023/01/08 04:23:27;;;;;;;10.38;3.40;;;;;;;;;;5073223;28;20060;-73
2023/01/08 04:25:53;;;;;;;11.10;3.58;;;;;;;;;;5072259;28;20032;-73
2023/01/08 04:28:20;;;;;;;8.50;3.78;;;;;;;;;;5073031;28;20037;-73
2023/01/08 04:30:46;;;;;;;6.40;3.60;;;;;;;;;;5072758;28;20044;-73
2023/01/08 04:33:12;;;;;;;9.20;3.60;;;;;;;;;;5073008;28;20548;-74
2023/01/08 04:35:38;;;;;;;6.03;3.33;;;;;;;;;;5072440;28;20323;-74
2023/01/08 04:38:04;;;;;;;7.47;3.60;;;;;;;;;;5055020;28;20481;-70
2023/01/08 04:40:31;;;;;;;6.65;3.50;;;;;;;;;;5072427;28;20495;-72
2023/01/08 04:42:57;;;;;;;4.72;3.30;;;;;;;;;;5072691;28;20060;-73
2023/01/08 04:45:23;;;;;;;11.20;3.40;;;;;;;;;;5071678;28;20027;-73
2023/01/08 04:47:54;;;;;;;8.70;3.50;;;;;;;;;;5072411;28;20032;-72
2023/01/08 04:50:20;;;;;;;5.20;3.20;;;;;;;;;;5072780;28;20024;-73
2023/01/08 04:52:46;;;;;;;5.22;3.28;;;;;;;;;;5073153;28;20025;-73
2023/01/08 04:55:12;;;;;;;5.75;3.53;;;;;;;;;;5076724;28;20103;-74
2023/01/08 04:57:38;;;;;;;7.25;3.42;;;;;;;;;;5073066;28;20028;-74
2023/01/08 05:00:04;;;;;;;7.20;3.70;;;;;;;;;;5073926;28;20039;-73
2023/01/08 05:02:30;;;;;;;12.65;3.65;;;;;;;;;;5075213;28;20112;-74
2023/01/08 05:04:56;;;;;;;7.93;3.47;;;;;;;;;;5073396;28;20063;-73
2023/01/08 05:07:22;;;;;;;9.57;3.38;;;;;;;;;;5073102;28;20412;-73
2023/01/08 05:09:48;;;;;;;8.50;3.55;;;;;;;;;;5054677;28;20571;-73
2023/01/08 05:12:14;;;;;;;6.32;3.30;;;;;;;;;;5071950;28;20466;-73
2023/01/08 05:14:40;;;;;;;7.50;3.80;;;;;;;;;;5071692;28;20062;-73
2023/01/08 05:17:06;;;;;;;5.47;3.40;;;;;;;;;;5071412;28;20441;-73
2023/01/08 05:19:32;;;;;;;10.57;3.85;;;;;;;;;;5071755;28;20074;-72
2023/01/08 05:21:58;;;;;;;10.15;4.07;;;;;;;;;;5071621;28;20097;-72
2023/01/08 05:24:24;;;;;;;7.70;3.72;;;;;;;;;;5072233;28;20442;-73
2023/01/08 05:26:50;;;;;;;9.20;3.47;;;;;;;;;;5071221;28;20036;-72
2023/01/08 05:29:16;;;;;;;6.00;3.67;;;;;;;;;;5071498;28;20075;-73
2023/01/08 05:31:42;;;;;;;4.53;3.42;;;;;;;;;;5071820;28;20358;-72
2023/01/08 05:34:08;;;;;;;12.38;4.03;;;;;;;;;;5071519;28;20031;-73
2023/01/08 05:36:34;;;;;;;7.30;3.45;;;;;;;;;;5071308;28;20107;-73
2023/01/08 05:39:00;;;;;;;7.63;4.00;;;;;;;;;;5071533;28;20095;-73
2023/01/08 05:41:26;;;;;;;5.22;3.45;;;;;;;;;;5071397;28;20194;-73
2023/01/08 05:43:52;;;;;;;6.70;3.45;;;;;;;;;;5054398;28;20052;-73
2023/01/08 05:46:18;;;;;;;7.82;3.35;;;;;;;;;;5071109;28;20028;-75
2023/01/08 05:48:43;;;;;;;6.35;3.47;;;;;;;;;;5054276;28;20027;-72
2023/01/08 05:51:10;;;;;;;5.55;3.47;;;;;;;;;;5053785;28;20112;-72
2023/01/08 05:53:36;;;;;;;5.00;3.10;;;;;;;;;;5054003;28;20025;-73
2023/01/08 05:56:02;;;;;;;6.07;3.15;;;;;;;;;;5071349;28;20099;-73
2023/01/08 05:58:29;;;;;;;7.45;3.67;;;;;;;;;;5071792;28;20025;-72
2023/01/08 06:01:00;;;;;;;7.78;3.80;;;;;;;;;;5071756;28;20028;-72
2023/01/08 06:03:26;;;;;;;8.63;3.70;;;;;;;;;;5073110;28;20029;-73
2023/01/08 06:05:52;;;;;;;11.95;3.60;;;;;;;;;;5072605;28;20082;-72
2023/01/08 06:08:18;;;;;;;5.18;3.13;;;;;;;;;;5072804;28;20103;-72
2023/01/08 06:10:43;;;;;;;4.72;3.25;;;;;;;;;;5072526;28;20124;-72
2023/01/08 06:13:10;;;;;;;6.53;3.55;;;;;;;;;;5071818;28;20316;-72
2023/01/08 06:15:37;;;;;;;9.38;3.35;;;;;;;;;;5071972;28;20149;-72
2023/01/08 06:18:04;;;;;;;11.82;3.65;;;;;;;;;;5071989;28;20031;-72
2023/01/08 06:20:30;;;;;;;5.05;3.50;;;;;;;;;;5072411;28;20025;-73
2023/01/08 06:22:55;;;;;;;7.78;3.90;;;;;;;;;;5055078;28;20104;-73
2023/01/08 06:25:21;;;;;;;4.53;3.08;;;;;;;;;;5075292;28;20050;-72
2023/01/08 06:27:51;;;;;;;7.32;3.75;;;;;;;;;;5073365;28;20025;-71
2023/01/08 06:30:17;;;;;;;6.78;3.50;;;;;;;;;;5074164;28;20466;-72
2023/01/08 06:32:43;;;;;;;9.48;3.58;;;;;;;;;;5060582;28;20024;-72
2023/01/08 06:35:09;;;;;;;7.93;3.90;;;;;;;;;;5073642;28;20035;-72
2023/01/08 06:37:35;;;;;;;7.47;3.88;;;;;;;;;;5070330;28;20055;-72
2023/01/08 06:40:01;;;;;;;10.80;3.88;;;;;;;;;;5069807;28;20107;-73
2023/01/08 06:42:27;;;;;;;7.55;3.50;;;;;;;;;;5073771;28;20036;-73
2023/01/08 06:44:53;;;;;;;8.50;3.58;;;;;;;;;;5056054;28;20028;-73
2023/01/08 06:47:19;;;;;;;4.78;2.92;;;;;;;;;;5074576;28;20040;-73
2023/01/08 06:49:45;;;;;;;9.05;3.53;;;;;;;;;;5074716;28;20035;-73
2023/01/08 06:52:11;;;;;;;7.30;3.28;;;;;;;;;;5074529;28;20024;-73
2023/01/08 06:54:37;;;;;;;8.55;4.45;;;;;;;;;;5076186;28;20021;-72
2023/01/08 06:57:03;;;;;;;5.53;3.25;;;;;;;;;;5075550;28;20055;-72
2023/01/08 06:59:28;;;;;;;5.68;3.28;;;;;;;;;;5076233;28;20043;-73
2023/01/08 07:01:54;;;;;;;6.22;3.53;;;;;;;;;;5075965;28;20392;-72
2023/01/08 07:04:20;;;;;;;8.20;3.50;;;;;;;;;;5077176;28;20393;-74
2023/01/08 07:06:46;;;;;;;5.93;3.60;;;;;;;;;;5076703;28;20024;-73
2023/01/08 07:09:14;;;;;;;5.13;3.10;;;;;;;;;;5075684;28;20032;-73
2023/01/08 07:11:41;;;;;;;4.22;2.88;;;;;;;;;;5075669;28;20088;-73
2023/01/08 07:14:07;;;;;;;4.95;3.17;;;;;;;;;;5075311;28;20028;-73
2023/01/08 07:16:33;;;;;;;10.25;3.55;;;;;;;;;;5074913;28;20108;-73
2023/01/08 07:18:59;;;;;;;6.63;3.50;;;;;;;;;;5075351;28;20032;-74
2023/01/08 07:21:25;;;;;;;5.93;3.28;;;;;;;;;;5056408;28;20100;-73
2023/01/08 07:23:51;;;;;;;8.13;3.17;;;;;;;;;;5057138;28;20207;-74
2023/01/08 07:26:17;;;;;;;5.75;3.75;;;;;;;;;;5065863;22;20057;-76
2023/01/08 07:28:43;;;;;;;7.15;3.20;;;;;;;;;;5037840;28;20029;-79
2023/01/08 07:31:09;;;;;;;7.57;3.17;;;;;;;;;;5038211;28;20462;-79
2023/01/08 07:33:35;;;;;;;6.60;3.30;;;;;;;;;;5042564;28;20025;-78
2023/01/08 07:36:02;;;;;;;4.88;3.13;;;;;;;;;;5045310;28;20028;-79
2023/01/08 07:38:27;;;;;;;9.55;3.97;;;;;;;;;;5048784;28;20079;-78
2023/01/08 07:40:53;;;;;;;6.18;3.17;;;;;;;;;;5049310;28;20441;-76
2023/01/08 07:43:19;;;;;;;8.95;3.90;;;;;;;;;;5048769;28;20544;-77
2023/01/08 07:45:45;;;;;;;9.82;3.65;;;;;;;;;;5043902;28;20032;-78
2023/01/08 07:48:15;;;;;;;7.57;2.90;;;;;;;;;;5047561;28;20022;-78
2023/01/08 07:50:42;;;;;;;5.47;2.97;;;;;;;;;;5044529;28;20018;-79
2023/01/08 07:53:08;;;;;;;6.97;3.38;;;;;;;;;;5046597;28;20052;-78
2023/01/08 07:55:34;;;;;;;5.93;3.05;;;;;;;;;;5036073;28;20022;-80
2023/01/08 07:58:00;;;;;;;6.70;3.28;;;;;;;;;;5040197;28;20029;-77
2023/01/08 08:00:26;;;;;;;9.43;4.20;;;;;;;;;;5034932;28;20095;-77
2023/01/08 08:02:52;;;;;;;8.70;3.42;;;;;;;;;;5036592;28;20566;-77
2023/01/08 08:05:18;;;;;;;6.00;3.67;;;;;;;;;;5034856;28;20177;-79
2023/01/08 08:07:44;;;;;;;9.45;3.67;;;;;;;;;;5034511;28;20025;-76
2023/01/08 08:10:10;;;;;;;7.72;3.70;;;;;;;;;;5037968;28;20028;-78
2023/01/08 08:12:36;;;;;;;6.78;3.20;;;;;;;;;;5033562;28;20058;-76
2023/01/08 08:15:03;;;;;;;7.80;3.72;;;;;;;;;;5038514;28;20061;-77
2023/01/08 08:17:29;;;;;;;8.27;3.33;;;;;;;;;;5034358;28;20026;-76
2023/01/08 08:19:54;;;;;;;9.85;3.30;;;;;;;;;;5035207;28;20032;-77
2023/01/08 08:22:20;;;;;;;7.72;3.35;;;;;;;;;;5045739;28;20416;-76
2023/01/08 08:24:46;;;;;;;11.43;3.10;;;;;;;;;;5054155;28;21004;-76
2023/01/08 08:27:12;;;;;;;11.50;3.70;;;;;;;;;;5053977;28;20049;-78
2023/01/08 08:29:38;;;;;;;9.15;3.30;;;;;;;;;;5054868;28;20055;-77
2023/01/08 08:32:04;;;;;;;7.95;3.72;;;;;;;;;;5055006;28;20104;-76
2023/01/08 08:34:30;;;;;;;7.63;3.38;;;;;;;;;;5060896;28;20029;-77
2023/01/08 08:36:58;;;;;;;7.40;3.60;;;;;;;;;;5064829;28;20033;-76
2023/01/08 08:39:24;;;;;;;6.47;3.70;;;;;;;;;;5058875;28;20033;-77
2023/01/08 08:41:50;;;;;;;9.63;3.90;;;;;;;;;;5056105;28;20031;-79
2023/01/08 08:44:16;;;;;;;8.85;3.60;;;;;;;;;;5054528;28;20036;-78
2023/01/08 08:46:43;;;;;;;7.88;4.00;;;;;;;;;;5052697;28;20045;-80
2023/01/08 08:49:09;;;;;;;6.30;3.60;;;;;;;;;;5053734;28;20024;-75
2023/01/08 08:51:35;;;;;;;9.82;3.70;;;;;;;;;;5053848;28;20021;-76
2023/01/08 08:54:01;;;;;;;8.85;3.40;;;;;;;;;;5054124;28;20079;-77
2023/01/08 08:56:28;;;;;;;8.07;3.80;;;;;;;;;;5054142;28;20112;-76
2023/01/08 08:58:54;;;;;;;10.88;4.18;;;;;;;;;;5052011;28;20017;-79
2023/01/08 09:01:20;;;;;;;11.80;4.25;;;;;;;;;;5052680;28;20047;-79
2023/01/08 09:03:46;;;;;;;7.28;4.25;;;;;;;;;;5053703;28;20480;-74
2023/01/08 09:06:13;;;;;;;11.95;4.15;;;;;;;;;;5056097;28;20092;-77
2023/01/08 09:08:39;;;;;;;11.20;4.30;;;;;;;;;;5052965;28;20041;-76
2023/01/08 09:11:05;;;;;;;9.48;4.07;;;;;;;;;;5053766;28;20021;-75
2023/01/08 09:13:31;;;;;;;11.25;4.70;;;;;;;;;;5052201;28;20020;-78
2023/01/08 09:15:58;;;;;;;13.15;4.55;;;;;;;;;;5052859;28;20371;-77
2023/01/08 09:18:24;;;;;;;9.82;4.20;;;;;;;;;;5058254;28;20450;-76
2023/01/08 09:20:50;;;;;;;11.52;4.72;;;;;;;;;;5058130;28;20441;-78
2023/01/08 09:23:16;;;;;;;10.30;4.57;;;;;;;;;;5051896;28;20029;-77
2023/01/08 09:25:42;;;;;;;10.10;4.20;;;;;;;;;;5050458;28;20045;-78
2023/01/08 09:28:10;;;;;;;9.05;4.35;;;;;;;;;;5052266;28;20052;-79
2023/01/08 09:30:37;;;;;;;10.65;4.05;;;;;;;;;;5054269;28;20516;-80
2023/01/08 09:33:03;;;;;;;10.68;4.05;;;;;;;;;;5052367;28;20056;-78
2023/01/08 09:35:30;;;;;;;8.43;3.72;;;;;;;;;;5053942;28;20028;-78
2023/01/08 09:37:56;;;;;;;6.88;3.67;;;;;;;;;;5052143;28;20439;-76
2023/01/08 09:40:23;;;;;;;7.07;3.75;;;;;;;;;;5053150;28;20086;-77
2023/01/08 09:42:59;;;;;;;8.30;3.75;;;;;;;;;;5057247;28;20036;-78
2023/01/08 09:45:26;;;;;;;8.68;3.80;;;;;;;;;;5061593;28;20029;-78
2023/01/08 09:47:53;;;;;;;5.05;3.25;;;;;;;;;;5062140;28;20109;-77
2023/01/08 09:50:19;;;;;;;6.35;3.25;;;;;;;;;;5059461;28;20186;-78
2023/01/08 09:52:45;;;;;;;7.80;3.55;;;;;;;;;;5066352;28;20021;-79
2023/01/08 09:55:15;;;;;;;5.80;3.33;;;;;;;;;;5061217;28;20122;-77
2023/01/08 09:57:42;;;;;;;6.95;3.47;;;;;;;;;;5062757;28;20029;-78
2023/01/08 10:00:20;;;;;;;6.55;3.20;;;;;;;;;;5059710;28;20477;-78
2023/01/08 10:02:46;;;;;;;5.30;3.15;;;;;;;;;;5064413;28;20025;-78
2023/01/08 10:05:14;;;;;;;6.97;3.47;;;;;;;;;;5063917;28;20246;-77
2023/01/08 10:07:40;;;;;;;5.07;3.22;;;;;;;;;;5072694;28;20101;-77
2023/01/08 10:10:15;;;;;;;6.90;3.35;;;;;;;;;;5069241;28;20473;-77
2023/01/08 10:12:41;;;;;;;6.43;4.07;;;;;;;;;;5067399;28;20089;-79
2023/01/08 10:15:11;;;;;;;5.88;3.17;;;;;;;;;;5066207;28;20040;-78
2023/01/08 10:17:38;;;;;;;4.38;2.65;;;;;;;;;;5069689;28;20098;-78
2023/01/08 10:20:15;;;;;;;5.15;3.00;;;;;;;;;;5066092;28;20040;-79
2023/01/08 10:22:41;;;;;;;5.30;3.05;;;;;;;;;;5065533;28;20032;-78
2023/01/08 10:25:12;;;;;;;5.57;2.97;;;;;;;;;;5066981;28;20036;-76
2023/01/08 10:27:49;;;;;;;5.60;2.70;;;;;;;;;;5067578;28;20021;-78
2023/01/08 10:30:16;;;;;;;5.32;2.75;;;;;;;;;;5072816;28;20065;-78
2023/01/08 10:32:47;;;;;;;6.28;3.05;;;;;;;;;;5068810;28;20571;-78
2023/01/08 10:35:16;;;;;;;5.03;2.78;;;;;;;;;;5070809;28;20009;-78
2023/01/08 10:37:42;;;;;;;6.28;3.03;;;;;;;;;;5075928;28;20045;-78
2023/01/08 10:40:18;;;;;;;11.23;2.83;;;;;;;;;;5072187;28;20063;-78
2023/01/08 10:42:44;;;;;;;6.32;2.92;;;;;;;;;;5064648;28;20051;-79
2023/01/08 10:45:19;;;;;;;3.75;2.55;;;;;;;;;;5064999;28;20075;-79
2023/01/08 10:47:47;;;;;;;5.40;2.53;;;;;;;;;;5066237;28;20044;-78
2023/01/08 10:50:19;;;;;;;13.00;5.45;;;;;;;;;;5067299;28;20019;-77
2023/01/08 10:52:52;;;;;;;9.35;3.22;;;;;;;;;;5070763;28;20460;-79
2023/01/08 10:55:26;;;;;;;11.27;4.55;;;;;;;;;;5072506;28;20033;-79
2023/01/08 10:57:56;;;;;;;7.55;2.92;;;;;;;;;;5063534;28;20093;-79
2023/01/08 11:00:32;;;;;;;13.60;3.40;;;;;;;;;;5070574;28;20040;-78
2023/01/08 11:03:00;;;;;;;6.05;2.53;;;;;;;;;;5065557;28;20044;-79
2023/01/08 11:05:44;;;;;;;14.45;3.28;;;;;;;;;;5063972;28;20025;-78
2023/01/08 11:08:15;;;;;;;5.90;2.15;;;;;;;;;;5065061;28;20032;-79
2023/01/08 11:10:41;;;;;;;6.30;2.40;;;;;;;;;;5061881;28;20025;-79
2023/01/08 11:13:07;;;;;;;6.47;2.45;;;;;;;;;;5063754;28;20036;-79
2023/01/08 11:15:33;;;;;;;5.15;2.17;;;;;;;;;;5066542;28;20021;-78
2023/01/08 11:18:18;;;;;;;5.80;2.60;;;;;;;;;;5062358;28;20040;-79
2023/01/08 11:20:45;;;;;;;7.05;2.20;;;;;;;;;;5061108;28;20025;-79
2023/01/08 11:23:11;;;;;;;5.78;2.53;;;;;;;;;;5058822;28;20023;-79
2023/01/08 11:25:38;;;;;;;3.83;2.38;;;;;;;;;;5057132;28;20092;-79
2023/01/08 11:28:05;;;;;;;6.70;2.47;;;;;;;;;;5056393;28;20017;-79
2023/01/08 11:30:32;;;;;;;7.30;2.67;;;;;;;;;;5050297;28;20041;-77
2023/01/08 11:33:04;;;;;;;9.02;3.40;;;;;;;;;;5051131;28;20067;-79
2023/01/08 11:35:38;;;;;;;5.63;2.58;;;;;;;;;;5042542;28;20482;-79
2023/01/08 11:38:07;;;;;;;8.23;3.13;;;;;;;;;;5048946;28;20390;-79
2023/01/08 11:40:42;;;;;;;8.68;2.50;;;;;;;;;;5060368;28;20005;-77
2023/01/08 11:43:27;;;;;;;6.50;2.55;;;;;;;;;;5055113;28;20037;-81
2023/01/08 11:46:03;;;;;;;9.48;3.03;;;;;;;;;;5048815;28;20375;-79
2023/01/08 11:48:41;;;;;;;6.45;2.60;;;;;;;;;;5046314;28;20036;-78
2023/01/08 11:51:19;;;;;;;5.28;2.53;;;;;;;;;;5052159;28;20120;-79
2023/01/08 11:53:58;;;;;;;7.50;3.20;;;;;;;;;;5055122;28;20013;-79
2023/01/08 11:56:36;;;;;;;5.22;2.38;;;;;;;;;;5041025;28;20029;-78
2023/01/08 11:59:10;;;;;;;8.95;2.92;;;;;;;;;;5051075;28;20029;-78
2023/01/08 12:01:43;;;;;;;6.30;2.10;;;;;;;;;;5049820;28;20107;-78
2023/01/08 12:04:14;;;;;;;6.30;2.35;;;;;;;;;;5046389;28;20486;-78
2023/01/08 12:06:43;;;;;;;7.80;1.95;;;;;;;;;;5044951;28;20044;-78
2023/01/08 12:09:42;;;;;;;6.88;2.35;;;;;;;;;;5052189;28;20021;-79
2023/01/08 12:12:20;;;;;;;5.80;2.13;;;;;;;;;;5024810;28;20518;-79
2023/01/08 12:14:58;;;;;;;5.00;2.13;;;;;;;;;;5048292;28;20025;-78
2023/01/08 12:17:38;;;;;;;4.20;2.08;;;;;;;;;;5053277;28;20104;-78
2023/01/08 12:20:04;;;;;;;6.60;2.70;;;;;;;;;;5064459;28;20036;-78
2023/01/08 12:22:49;;;;;;;4.07;2.10;;;;;;;;;;5053852;28;20021;-79
2023/01/08 12:25:21;;;;;;;9.40;3.25;;;;;;;;;;5042267;28;20371;-78
2023/01/08 12:27:47;;;;;;;5.32;2.30;;;;;;;;;;5039282;28;20029;-77
2023/01/08 12:30:13;;;;;;;7.53;1.70;;;;;;;;;;5041668;28;20025;-80
2023/01/08 12:32:45;;;;;;;3.38;1.35;;;;;;;;;;5041309;28;20096;-79
2023/01/08 12:35:37;;;;;;;4.63;1.90;;;;;;;;;;5040535;28;20059;-78
2023/01/08 12:38:17;;;;;;;5.80;2.03;;;;;;;;;;5041054;28;20038;-78
2023/01/08 12:40:47;;;;;;;5.00;1.45;;;;;;;;;;5042654;28;20029;-77
2023/01/08 12:43:22;;;;;;;25.10;11.35;;;;;;;;;;5044784;28;20025;-78
2023/01/08 12:45:50;;;;;;;5.53;1.98;;;;;;;;;;5048721;28;20032;-76
2023/01/08 12:48:21;;;;;;;4.13;1.60;;;;;;;;;;5034374;28;20404;-76
2023/01/08 12:51:01;;;;;;;3.35;1.33;;;;;;;;;;5034004;28;20241;-75
2023/01/08 12:53:37;;;;;;;4.93;1.40;;;;;;;;;;5033489;28;20029;-77
2023/01/08 12:56:03;;;;;;;5.82;2.10;;;;;;;;;;5034566;28;20033;-78
2023/01/08 12:58:47;;;;;;;3.33;1.42;;;;;;;;;;5036479;28;20367;-78
2023/01/08 13:01:30;;;;;;;4.25;1.30;;;;;;;;;;5039693;28;20029;-78
2023/01/08 13:03:57;;;;;;;2.95;1.30;;;;;;;;;;5039716;28;20037;-77
2023/01/08 13:06:23;;;;;;;3.58;1.65;;;;;;;;;;5043669;28;20030;-79
2023/01/08 13:08:51;;;;;;;10.65;5.40;;;;;;;;;;5043523;28;20052;-75
2023/01/08 13:11:24;;;;;;;7.35;2.25;;;;;;;;;;5043229;28;20045;-79
2023/01/08 13:13:57;;;;;;;3.88;1.60;;;;;;;;;;5041729;28;20131;-79
2023/01/08 13:16:24;;;;;;;3.97;1.95;;;;;;;;;;5047415;28;20036;-78
2023/01/08 13:18:56;;;;;;;4.75;1.73;;;;;;;;;;5047320;28;20048;-81
2023/01/08 13:21:30;;;;;;;4.45;1.60;;;;;;;;;;5051590;28;20025;-80
2023/01/08 13:24:01;;;;;;;5.40;1.80;;;;;;;;;;5053766;28;20030;-79
2023/01/08 13:26:31;;;;;;;3.95;1.65;;;;;;;;;;5048297;28;20060;-78
2023/01/08 13:29:16;;;;;;;8.20;2.55;;;;;;;;;;5037408;28;20022;-76
2023/01/08 13:31:44;;;;;;;2.95;1.80;;;;;;;;;;5034444;28;20501;-77
2023/01/08 13:34:20;;;;;;;3.97;1.50;;;;;;;;;;5035879;28;20077;-77
2023/01/08 13:36:56;;;;;;;5.60;1.77;;;;;;;;;;5035885;28;20033;-77
2023/01/08 13:39:23;;;;;;;4.15;1.58;;;;;;;;;;5036852;28;20025;-78
2023/01/08 13:42:05;;;;;;;3.58;2.00;;;;;;;;;;5037158;28;20026;-76
2023/01/08 13:44:33;;;;;;;3.45;1.73;;;;;;;;;;5035233;28;20025;-77
2023/01/08 13:47:00;;;;;;;5.05;1.98;;;;;;;;;;5033826;28;20093;-76
2023/01/08 13:49:41;;;;;;;4.45;1.58;;;;;;;;;;5037943;28;20025;-78
2023/01/08 13:52:26;;;;;;;4.90;1.95;;;;;;;;;;5041987;28;20490;-77
2023/01/08 13:54:52;;;;;;;5.93;2.22;;;;;;;;;;5046132;28;20044;-76
2023/01/08 13:57:19;;;;;;;8.23;2.53;;;;;;;;;;5048531;28;20134;-77
2023/01/08 13:59:56;;;;;;;7.47;1.80;;;;;;;;;;5047659;28;20359;-79
2023/01/08 14:02:25;;;;;;;4.40;1.70;;;;;;;;;;5045130;28;20064;-78
2023/01/08 14:04:51;;;;;;;9.05;1.85;;;;;;;;;;5043722;28;20025;-78
2023/01/08 14:07:18;;;;;;;5.68;1.75;;;;;;;;;;5043374;28;20114;-78
2023/01/08 14:09:44;;;;;;;7.93;1.80;;;;;;;;;;5041989;28;20041;-77
2023/01/08 14:12:19;;;;;;;7.05;1.77;;;;;;;;;;5042454;28;20029;-76
2023/01/08 14:14:48;;;;;;;9.07;1.73;;;;;;;;;;5045448;28;20029;-79
2023/01/08 14:17:17;;;;;;;5.30;1.55;;;;;;;;;;5046134;28;20111;-79
2023/01/08 14:19:44;;;;;;;10.48;2.17;;;;;;;;;;5051330;28;20025;-79
2023/01/08 14:22:13;;;;;;;8.85;3.40;;;;;;;;;;5057951;28;20037;-79
2023/01/08 14:24:42;;;;;;;22.70;8.60;;;;;;;;;;5050948;28;20025;-78
2023/01/08 14:27:20;;;;;;;6.05;2.00;;;;;;;;;;5045169;28;20113;-78
2023/01/08 14:29:46;;;;;;;13.93;5.05;;;;;;;;;;5058684;28;20075;-77
2023/01/08 14:32:15;;;;;;;9.13;1.80;;;;;;;;;;5059537;28;20025;-77
2023/01/08 14:34:41;;;;;;;10.50;2.58;;;;;;;;;;5045864;28;20140;-80
2023/01/08 14:37:11;;;;;;;8.90;2.28;;;;;;;;;;5048371;28;20474;-78
2023/01/08 14:39:37;;;;;;;14.70;2.45;;;;;;;;;;5048818;28;20033;-79
2023/01/08 14:44:59;;;;;;;8.13;2.17;;;;;;;;;;5061478;28;20095;-78
2023/01/08 14:47:28;;;;;;;20.23;6.55;;;;;;;;;;5053186;28;20033;-77
2023/01/08 14:49:54;;;;;;;18.02;3.08;;;;;;;;;;5046832;28;20029;-77
2023/01/08 14:52:20;;;;;;;11.20;2.33;;;;;;;;;;5043019;28;20025;-76